createdAt,value
2022-12-27T00:02:22.441Z,1010.1
2022-12-27T00:05:22.400Z,1010
2022-12-27T00:08:22.416Z,1010
2022-12-27T00:11:22.414Z,1010.1
2022-12-27T00:14:22.437Z,1010
2022-12-27T00:17:22.416Z,1010
2022-12-27T00:20:22.435Z,1009.9
2022-12-27T00:23:22.421Z,1010
2022-12-27T00:26:22.438Z,1010.1
2022-12-27T00:29:22.431Z,1010.1
2022-12-27T00:32:22.460Z,1010.3
2022-12-27T00:35:22.443Z,1010.3
2022-12-27T00:38:22.446Z,1010.3
2022-12-27T00:41:22.457Z,1010.3
2022-12-27T00:44:22.465Z,1010.2
2022-12-27T00:47:22.460Z,1010.2
2022-12-27T00:50:22.595Z,1010.3
2022-12-27T00:53:22.465Z,1010.3
2022-12-27T00:56:22.474Z,1010.3
2022-12-27T00:59:22.469Z,1010.3
2022-12-27T01:02:22.525Z,1010.3
2022-12-27T01:05:22.483Z,1010.4
2022-12-27T01:08:22.512Z,1010.4
2022-12-27T01:11:22.498Z,1010.5
2022-12-27T01:14:22.513Z,1010.5
2022-12-27T01:17:22.501Z,1010.5
2022-12-27T01:20:22.502Z,1010.5
2022-12-27T01:23:22.510Z,1010.5
2022-12-27T01:26:22.543Z,1010.5
2022-12-27T01:29:22.514Z,1010.4
2022-12-27T01:32:22.544Z,1010.3
2022-12-27T01:35:22.519Z,1010.4
2022-12-27T01:38:22.525Z,1010.4
2022-12-27T01:41:22.538Z,1010.6
2022-12-27T01:44:22.655Z,1010.7
2022-12-27T01:47:22.542Z,1010.9
2022-12-27T01:50:22.548Z,1010.9
2022-12-27T01:53:22.540Z,1010.9
2022-12-27T01:56:22.566Z,1010.9
2022-12-27T01:59:22.560Z,1010.9
2022-12-27T02:02:22.752Z,1011
2022-12-27T02:05:22.568Z,1011
2022-12-27T02:08:22.565Z,1011
2022-12-27T02:11:22.585Z,1011
2022-12-27T02:14:27.595Z,1011.1
2022-12-27T02:17:22.585Z,1011.1
2022-12-27T02:20:22.608Z,1011.1
2022-12-27T02:23:22.589Z,1011.2
2022-12-27T02:26:22.612Z,1011.2
2022-12-27T02:29:22.597Z,1011.2
2022-12-27T02:32:22.608Z,1011.2
2022-12-27T02:35:22.612Z,1011.1
2022-12-27T02:38:22.644Z,1011.1
2022-12-27T02:41:22.627Z,1011.1
2022-12-27T02:44:22.630Z,1011.1
2022-12-27T02:47:22.632Z,1011.1
2022-12-27T02:50:22.636Z,1011
2022-12-27T02:53:22.641Z,1011
2022-12-27T02:56:22.689Z,1011
2022-12-27T02:59:22.656Z,1011
2022-12-27T03:02:22.831Z,1011
2022-12-27T03:05:22.661Z,1011
2022-12-27T03:08:22.665Z,1011.1
2022-12-27T03:11:22.701Z,1011.1
2022-12-27T03:14:22.722Z,1011.1
2022-12-27T03:17:22.683Z,1011.1
2022-12-27T03:20:22.684Z,1011.1
2022-12-27T03:23:22.700Z,1011.1
2022-12-27T03:26:22.705Z,1011.1
2022-12-27T03:29:22.701Z,1011.1
2022-12-27T03:32:22.733Z,1011.2
2022-12-27T03:35:22.708Z,1011.1
2022-12-27T03:38:22.706Z,1011.2
2022-12-27T03:41:22.727Z,1011.1
2022-12-27T03:44:22.718Z,1011.1
2022-12-27T03:47:22.728Z,1011.2
2022-12-27T03:50:22.764Z,1011.2
2022-12-27T03:53:22.740Z,1011.3
2022-12-27T03:56:22.772Z,1011.2
2022-12-27T03:59:22.751Z,1011.3
2022-12-27T04:02:22.994Z,1011.3
2022-12-27T04:05:22.755Z,1011.3
2022-12-27T04:08:22.781Z,1011.2
2022-12-27T04:11:22.778Z,1011.2
2022-12-27T04:14:22.763Z,1011.2
2022-12-27T04:17:22.799Z,1011.3
2022-12-27T04:20:22.776Z,1011.4
2022-12-27T04:23:22.780Z,1011.4
2022-12-27T04:26:22.813Z,1011.4
2022-12-27T04:29:22.795Z,1011.4
2022-12-27T04:32:22.795Z,1011.3
2022-12-27T04:35:22.800Z,1011.2
2022-12-27T04:38:22.807Z,1011.3
2022-12-27T04:41:22.835Z,1011.4
2022-12-27T04:44:22.841Z,1011.4
2022-12-27T04:47:22.819Z,1011.3
2022-12-27T04:50:22.825Z,1011.4
2022-12-27T04:53:22.831Z,1011.4
2022-12-27T04:56:22.847Z,1011.5
2022-12-27T04:59:22.842Z,1011.5
2022-12-27T05:02:23.120Z,1011.5
2022-12-27T05:05:22.846Z,1011.6
2022-12-27T05:08:22.853Z,1011.6
2022-12-27T05:11:22.865Z,1011.5
2022-12-27T05:14:22.859Z,1011.6
2022-12-27T05:17:22.873Z,1011.6
2022-12-27T05:20:22.956Z,1011.6
2022-12-27T05:23:22.873Z,1011.6
2022-12-27T05:26:22.882Z,1011.5
2022-12-27T05:29:22.877Z,1011.5
2022-12-27T05:32:22.881Z,1011.6
2022-12-27T05:35:22.889Z,1011.5
2022-12-27T05:38:23.053Z,1011.5
2022-12-27T05:41:22.923Z,1011.5
2022-12-27T05:44:22.897Z,1011.4
2022-12-27T05:47:22.904Z,1011.5
2022-12-27T05:50:22.907Z,1011.6
2022-12-27T05:53:22.911Z,1011.7
2022-12-27T05:56:22.951Z,1011.9
2022-12-27T05:59:22.918Z,1011.7
2022-12-27T06:02:23.110Z,1011.7
2022-12-27T06:05:22.931Z,1011.8
2022-12-27T06:08:22.935Z,1011.9
2022-12-27T06:11:22.965Z,1012
2022-12-27T06:14:22.966Z,1012.1
2022-12-27T06:17:22.943Z,1012.1
2022-12-27T06:20:22.946Z,1012
2022-12-27T06:23:22.965Z,1012.1
2022-12-27T06:26:22.975Z,1011.9
2022-12-27T06:29:22.967Z,1012
2022-12-27T06:32:23.006Z,1012
2022-12-27T06:35:22.976Z,1012
2022-12-27T06:38:22.984Z,1012.1
2022-12-27T06:41:23.002Z,1012
2022-12-27T06:44:22.994Z,1012.2
2022-12-27T06:47:22.994Z,1012.2
2022-12-27T06:50:23.035Z,1012.2
2022-12-27T06:53:23.014Z,1012.3
2022-12-27T06:56:23.043Z,1012.3
2022-12-27T06:59:23.014Z,1012.2
2022-12-27T07:02:23.076Z,1012.3
2022-12-27T07:05:23.018Z,1012.3
2022-12-27T07:08:23.053Z,1012.4
2022-12-27T07:11:23.050Z,1012.5
2022-12-27T07:14:23.041Z,1012.5
2022-12-27T07:17:23.036Z,1012.6
2022-12-27T07:20:23.037Z,1012.7
2022-12-27T07:23:23.054Z,1012.7
2022-12-27T07:26:23.087Z,1012.8
2022-12-27T07:29:23.056Z,1012.8
2022-12-27T07:32:23.047Z,1012.9
2022-12-27T07:35:23.058Z,1012.9
2022-12-27T07:38:23.068Z,1012.9
2022-12-27T07:41:23.072Z,1013
2022-12-27T07:44:23.119Z,1013.2
2022-12-27T07:47:23.061Z,1013
2022-12-27T07:50:23.060Z,1013.2
2022-12-27T07:53:23.078Z,1013.2
2022-12-27T07:56:26.071Z,1013.2
2022-12-27T07:59:23.088Z,1013.3
2022-12-27T08:02:23.178Z,1013.4
2022-12-27T08:05:27.532Z,1013.4
2022-12-27T08:08:23.106Z,1013.5
2022-12-27T08:11:23.132Z,1013.5
2022-12-27T08:14:23.165Z,1013.7
2022-12-27T08:17:23.121Z,1013.7
2022-12-27T08:20:23.164Z,1013.7
2022-12-27T08:23:23.153Z,1013.7
2022-12-27T08:26:23.151Z,1013.6
2022-12-27T08:29:23.154Z,1013.6
2022-12-27T08:32:23.160Z,1013.6
2022-12-27T08:35:51.341Z,1013.6
2022-12-27T08:38:23.222Z,1013.6
2022-12-27T08:41:23.242Z,1013.7
2022-12-27T08:44:23.192Z,1013.8
2022-12-27T08:47:23.183Z,1013.7
2022-12-27T08:50:23.188Z,1013.8
2022-12-27T08:53:23.206Z,1013.9
2022-12-27T08:56:23.367Z,1013.8
2022-12-27T08:59:23.210Z,1013.9
2022-12-27T09:02:23.319Z,1014
2022-12-27T09:05:23.217Z,1014
2022-12-27T09:08:23.235Z,1014
2022-12-27T09:11:23.246Z,1014.3
2022-12-27T09:14:23.274Z,1014.3
2022-12-27T09:17:23.233Z,1014.2
2022-12-27T09:20:23.240Z,1014.2
2022-12-27T09:23:23.242Z,1014.3
2022-12-27T09:26:23.240Z,1014.3
2022-12-27T09:29:23.238Z,1014.3
2022-12-27T09:32:23.264Z,1014.3
2022-12-27T09:35:23.250Z,1014.3
2022-12-27T09:38:23.271Z,1014.3
2022-12-27T09:42:12.100Z,1014.4
2022-12-27T09:44:23.254Z,1014.4
2022-12-27T09:47:23.255Z,1014.4
2022-12-27T09:50:23.277Z,1014.4
2022-12-27T09:53:23.271Z,1014.5
2022-12-27T09:56:23.273Z,1014.5
2022-12-27T09:59:23.268Z,1014.6
2022-12-27T10:02:23.391Z,1014.7
2022-12-27T10:05:23.599Z,1014.7
2022-12-27T10:08:23.319Z,1014.7
2022-12-27T10:11:23.298Z,1014.7
2022-12-27T10:14:23.287Z,1014.7
2022-12-27T10:17:23.311Z,1014.7
2022-12-27T10:20:23.304Z,1014.8
2022-12-27T10:23:23.310Z,1014.7
2022-12-27T10:26:23.337Z,1014.8
2022-12-27T10:29:23.313Z,1014.7
2022-12-27T10:32:23.319Z,1014.7
2022-12-27T10:35:23.334Z,1014.7
2022-12-27T10:38:23.342Z,1014.7
2022-12-27T10:41:23.341Z,1014.7
2022-12-27T10:44:23.360Z,1014.7
2022-12-27T10:47:23.340Z,1014.7
2022-12-27T10:50:23.346Z,1014.7
2022-12-27T10:53:23.370Z,1014.7
2022-12-27T10:56:23.369Z,1014.8
2022-12-27T10:59:23.367Z,1014.7
2022-12-27T11:02:23.503Z,1014.7
2022-12-27T11:05:23.371Z,1014.7
2022-12-27T11:08:23.400Z,1014.8
2022-12-27T11:11:23.662Z,1014.8
2022-12-27T11:14:23.402Z,1014.7
2022-12-27T11:17:23.532Z,1014.8
2022-12-27T11:20:23.477Z,1014.9
2022-12-27T11:23:23.426Z,1014.9
2022-12-27T11:26:23.429Z,1014.7
2022-12-27T11:29:23.420Z,1014.8
2022-12-27T11:32:23.420Z,1014.7
2022-12-27T11:35:23.432Z,1014.7
2022-12-27T11:38:23.467Z,1014.8
2022-12-27T11:41:27.829Z,1014.8
2022-12-27T11:44:23.437Z,1014.9
2022-12-27T11:47:23.471Z,1014.9
2022-12-27T11:50:23.596Z,1014.9
2022-12-27T11:53:23.455Z,1014.8
2022-12-27T11:56:23.529Z,1014.9
2022-12-27T11:59:23.447Z,1014.8
2022-12-27T12:02:23.515Z,1014.9
2022-12-27T12:05:23.451Z,1014.8
2022-12-27T12:08:23.462Z,1014.8
2022-12-27T12:11:23.488Z,1014.8
2022-12-27T12:14:23.485Z,1015
2022-12-27T12:17:23.454Z,1015.1
2022-12-27T12:20:23.461Z,1014.9
2022-12-27T12:23:23.473Z,1015
2022-12-27T12:26:23.480Z,1015
2022-12-27T12:29:23.477Z,1015
2022-12-27T12:32:23.490Z,1015
2022-12-27T12:35:23.463Z,1014.9
2022-12-27T12:38:23.496Z,1015
2022-12-27T12:41:23.488Z,1015.1
2022-12-27T12:44:23.471Z,1015
2022-12-27T12:47:23.471Z,1015
2022-12-27T12:50:23.495Z,1015
2022-12-27T12:53:23.487Z,1015
2022-12-27T12:56:23.485Z,1014.9
2022-12-27T12:59:23.475Z,1015
2022-12-27T13:02:23.633Z,1015
2022-12-27T13:05:23.481Z,1015.2
2022-12-27T13:08:23.517Z,1015.3
2022-12-27T13:11:23.509Z,1015.3
2022-12-27T13:14:23.494Z,1015.3
2022-12-27T13:17:23.491Z,1015.3
2022-12-27T13:20:23.492Z,1015.2
2022-12-27T13:23:23.499Z,1015.1
2022-12-27T13:26:23.533Z,1015.3
2022-12-27T13:29:23.493Z,1015.2
2022-12-27T13:32:23.493Z,1015.1
2022-12-27T13:35:23.497Z,1015.1
2022-12-27T13:38:23.513Z,1015.1
2022-12-27T13:41:28.205Z,1015.2
2022-12-27T13:44:23.528Z,1015
2022-12-27T13:47:23.496Z,1014.9
2022-12-27T13:50:23.505Z,1014.9
2022-12-27T13:53:23.523Z,1014.9
2022-12-27T13:56:52.540Z,1015
2022-12-27T13:59:23.504Z,1014.9
2022-12-27T14:02:23.648Z,1014.9
2022-12-27T14:05:23.511Z,1015
2022-12-27T14:08:23.525Z,1015
2022-12-27T14:11:23.528Z,1015
2022-12-27T14:14:23.509Z,1014.9
2022-12-27T14:17:23.508Z,1015
2022-12-27T14:20:23.539Z,1014.9
2022-12-27T14:23:23.536Z,1014.9
2022-12-27T14:26:23.527Z,1014.9
2022-12-27T14:29:23.515Z,1014.9
2022-12-27T14:32:23.520Z,1015
2022-12-27T14:35:23.525Z,1015.1
2022-12-27T14:38:23.571Z,1015.1
2022-12-27T14:41:23.532Z,1015.1
2022-12-27T14:44:23.528Z,1015
2022-12-27T14:47:23.531Z,1015.1
2022-12-27T14:50:23.534Z,1015.1
2022-12-27T14:53:23.541Z,1015.1
2022-12-27T14:56:23.583Z,1015.1
2022-12-27T14:59:23.535Z,1015.1
2022-12-27T15:02:23.689Z,1015
2022-12-27T15:05:23.550Z,1015.1
2022-12-27T15:08:23.562Z,1015
2022-12-27T15:11:23.563Z,1015.1
2022-12-27T15:14:23.574Z,1015
2022-12-27T15:17:23.547Z,1015
2022-12-27T15:20:23.554Z,1015
2022-12-27T15:23:23.576Z,1015
2022-12-27T15:26:23.576Z,1015
2022-12-27T15:29:23.562Z,1015.1
2022-12-27T15:32:23.601Z,1015
2022-12-27T15:35:23.569Z,1015.1
2022-12-27T15:38:23.692Z,1015
2022-12-27T15:41:23.585Z,1015
2022-12-27T15:44:23.582Z,1015.1
2022-12-27T15:47:23.591Z,1015
2022-12-27T15:50:23.606Z,1015
2022-12-27T15:53:23.600Z,1014.9
2022-12-27T15:56:23.606Z,1014.9
2022-12-27T15:59:23.593Z,1014.9
2022-12-27T16:02:23.689Z,1015
2022-12-27T16:05:23.591Z,1015
2022-12-27T16:08:23.652Z,1015
2022-12-27T16:11:23.619Z,1015
2022-12-27T16:14:23.601Z,1014.9
2022-12-27T16:17:23.669Z,1014.9
2022-12-27T16:20:23.606Z,1014.9
2022-12-27T16:23:23.617Z,1014.9
2022-12-27T16:26:23.661Z,1014.9
2022-12-27T16:29:23.613Z,1014.8
2022-12-27T16:32:23.621Z,1015
2022-12-27T16:35:23.626Z,1014.9
2022-12-27T16:38:23.680Z,1014.9
2022-12-27T16:41:23.641Z,1015
2022-12-27T16:44:23.652Z,1014.9
2022-12-27T16:47:23.637Z,1015
2022-12-27T16:50:23.632Z,1015
2022-12-27T16:53:23.646Z,1014.9
2022-12-27T16:56:23.654Z,1014.9
2022-12-27T16:59:23.647Z,1014.9
2022-12-27T17:02:23.786Z,1014.8
2022-12-27T17:05:23.657Z,1014.6
2022-12-27T17:08:23.672Z,1014.6
2022-12-27T17:11:23.685Z,1014.8
2022-12-27T17:14:23.676Z,1014.8
2022-12-27T17:17:23.706Z,1014.7
2022-12-27T17:20:23.717Z,1014.6
2022-12-27T17:23:23.769Z,1014.6
2022-12-27T17:26:23.697Z,1014.5
2022-12-27T17:29:29.432Z,1014.6
2022-12-27T17:32:23.696Z,1014.7
2022-12-27T17:35:28.638Z,1014.6
2022-12-27T17:38:23.745Z,1014.5
2022-12-27T17:41:23.724Z,1014.5
2022-12-27T17:44:23.723Z,1014.6
2022-12-27T17:47:23.724Z,1014.6
2022-12-27T17:50:23.730Z,1014.5
2022-12-27T17:53:23.739Z,1014.6
2022-12-27T17:56:23.773Z,1014.5
2022-12-27T17:59:23.739Z,1014.6
2022-12-27T18:02:23.875Z,1014.6
2022-12-27T18:05:27.263Z,1014.5
2022-12-27T18:08:23.756Z,1014.5
2022-12-27T18:11:27.989Z,1014.5
2022-12-27T18:14:23.790Z,1014.4
2022-12-27T18:17:28.420Z,1014.3
2022-12-27T18:20:23.765Z,1014.5
2022-12-27T18:23:23.785Z,1014.4
2022-12-27T18:26:23.786Z,1014.3
2022-12-27T18:29:23.802Z,1014.3
2022-12-27T18:32:23.820Z,1014.2
2022-12-27T18:35:24.457Z,1014.2
2022-12-27T18:38:23.819Z,1014.3
2022-12-27T18:41:23.814Z,1014.2
2022-12-27T18:44:27.325Z,1014.1
2022-12-27T18:47:23.817Z,1014
2022-12-27T18:50:23.850Z,1014
2022-12-27T18:53:23.860Z,1014.1
2022-12-27T18:56:23.853Z,1014
2022-12-27T18:59:23.843Z,1014
2022-12-27T19:02:23.915Z,1014
2022-12-27T19:05:23.859Z,1013.9
2022-12-27T19:08:23.896Z,1013.9
2022-12-27T19:11:23.880Z,1013.9
2022-12-27T19:14:23.878Z,1013.9
2022-12-27T19:17:23.887Z,1013.6
2022-12-27T19:20:23.908Z,1013.7
2022-12-27T19:23:23.905Z,1013.7
2022-12-27T19:26:23.952Z,1013.8
2022-12-27T19:29:23.914Z,1013.5
2022-12-27T19:32:23.919Z,1013.7
2022-12-27T19:35:23.921Z,1013.6
2022-12-27T19:38:23.939Z,1013.5
2022-12-27T19:41:23.949Z,1013.5
2022-12-27T19:44:23.974Z,1013.5
2022-12-27T19:47:24.070Z,1013.5
2022-12-27T19:50:23.958Z,1013.5
2022-12-27T19:53:23.981Z,1013.5
2022-12-27T19:56:23.979Z,1013.5
2022-12-27T19:59:23.981Z,1013.5
2022-12-27T20:02:24.179Z,1013.3
2022-12-27T20:06:10.979Z,1013.3
2022-12-27T20:08:24.004Z,1013.3
2022-12-27T20:11:24.005Z,1013.5
2022-12-27T20:14:24.010Z,1013.4
2022-12-27T20:17:24.006Z,1013.4
2022-12-27T20:20:24.053Z,1013.4
2022-12-27T20:23:24.035Z,1013.4
2022-12-27T20:26:24.032Z,1013.4
2022-12-27T20:29:24.032Z,1013.3
2022-12-27T20:32:24.023Z,1013.3
2022-12-27T20:35:24.043Z,1013.4
2022-12-27T20:38:24.069Z,1013.3
2022-12-27T20:41:24.045Z,1013.3
2022-12-27T20:44:24.037Z,1013.4
2022-12-27T20:47:24.043Z,1013.4
2022-12-27T20:50:24.047Z,1013.4
2022-12-27T20:53:24.059Z,1013.4
2022-12-27T20:56:24.095Z,1013.3
2022-12-27T20:59:24.064Z,1013.3
2022-12-27T21:02:24.315Z,1013.2
2022-12-27T21:05:24.065Z,1013.2
2022-12-27T21:08:24.083Z,1013.1
2022-12-27T21:11:24.089Z,1013.1
2022-12-27T21:14:24.097Z,1013.1
2022-12-27T21:17:24.069Z,1013.1
2022-12-27T21:20:24.079Z,1013
2022-12-27T21:23:24.092Z,1013.1
2022-12-27T21:26:24.100Z,1013
2022-12-27T21:29:24.108Z,1012.8
2022-12-27T21:32:24.125Z,1012.8
2022-12-27T21:35:24.105Z,1012.8
2022-12-27T21:38:24.128Z,1012.7
2022-12-27T21:41:24.169Z,1012.7
2022-12-27T21:44:24.126Z,1012.7
2022-12-27T21:47:24.162Z,1012.6
2022-12-27T21:50:24.174Z,1012.5
2022-12-27T21:53:24.164Z,1012.5
2022-12-27T21:56:24.203Z,1012.6
2022-12-27T21:59:24.183Z,1012.6
2022-12-27T22:02:24.397Z,1012.6
2022-12-27T22:05:24.195Z,1012.6
2022-12-27T22:08:24.243Z,1012.5
2022-12-27T22:11:24.246Z,1012.4
2022-12-27T22:14:25.676Z,1012.5
2022-12-27T22:17:24.231Z,1012.6
2022-12-27T22:20:24.244Z,1012.4
2022-12-27T22:23:24.261Z,1012.5
2022-12-27T22:26:24.299Z,1012.5
2022-12-27T22:29:24.275Z,1012.4
2022-12-27T22:32:24.287Z,1012.3
2022-12-27T22:35:24.295Z,1012.5
2022-12-27T22:38:24.319Z,1012.4
2022-12-27T22:41:24.336Z,1012.4
2022-12-27T22:44:24.348Z,1012.3
2022-12-27T22:47:26.580Z,1012.3
2022-12-27T22:50:24.342Z,1012.3
2022-12-27T22:53:24.376Z,1012.3
2022-12-27T22:56:24.381Z,1012.3
2022-12-27T22:59:24.380Z,1012.2
2022-12-27T23:02:24.537Z,1012.2
2022-12-27T23:05:24.401Z,1012.2
2022-12-27T23:08:24.419Z,1012.2
2022-12-27T23:11:24.437Z,1012.1
2022-12-27T23:14:24.435Z,1012.1
2022-12-27T23:17:24.450Z,1012
2022-12-27T23:20:24.495Z,1012.1
2022-12-27T23:23:24.483Z,1012
2022-12-27T23:26:24.497Z,1011.9
2022-12-27T23:29:24.492Z,1011.8
2022-12-27T23:32:24.520Z,1011.8
2022-12-27T23:35:24.514Z,1011.8
2022-12-27T23:38:24.567Z,1011.7
2022-12-27T23:41:24.553Z,1011.6
2022-12-27T23:44:33.589Z,1011.6
2022-12-27T23:47:24.554Z,1011.5
2022-12-27T23:50:24.549Z,1011.4
2022-12-27T23:53:24.575Z,1011.3
2022-12-27T23:56:24.610Z,1011.3
2022-12-27T23:59:24.578Z,1011.5
